Terminal Aerodrome Forecast
Issued by NWS

Home | Current Version | Previous Version | Text Only | Print | Product List | Glossary On
Versions: 1 2 3 4 5 6 7 8 9 10 11 12
166
FTUS45 KABQ 282330
TAFFMN
TAF
KFMN 282330Z 2900/2924 25008KT P6SM SCT120
     FM290200 07006KT P6SM BKN120
     FM291000 09009KT P6SM FEW120
     FM291600 13006KT P6SM SKC
     FM292000 20008KT P6SM SCT150=

USA.gov is the U.S. government's official web portal to all federal, state and local government web resources and services.